Accueil
METAR-TAF:

METAR-TAF

Aéroports :

Guaymas, Mexique

latitude: 27-58N, longitude: 110-56W, altitude: 27 m

Observation

Le bulletin a été fait il y a 10 heures et 54 minutes, à 02:50 UTC
Vent calme
Température 31°C
Humidité 79%
Pression 1007 hPa
Visibilité: 8.0 km
Ciel clair

METAR: MMGM 210250Z 00000KT 5SM SKC 31/27 A2975 RMK HZY

Heure: 06:44 (13:44 UTC)

Prévision

Le bulletin a été fait il y a 8 heures et 51 minutes, à 04:53 UTC
Prévision valable du 21 à 06 UTC au 22 à 06 UTC
Vent kt de nord
Visibilité: 8.0 km
Nuages épars à une hauteur de 25000 ft
brume sèche
A partir de 21 à 1900 UTC
Vent 12 kt de ouest
Visibilité: 10 km
Nuages épars à une hauteur de 2000 ft
A partir de 22 à 0200 UTC
Vent kt de nord
Visibilité: 8.0 km
Nuages épars à une hauteur de 25000 ft
brume sèche

TAF: MMGM 210453Z 2106/2206 00000KT 5SM HZ SCT250 FM211900 26012KT P6SM SCT020 FM220200 00000KT 5SM HZ SCT250

Observations et prévisions météorologiques de plus de 4000 aéroports (messages METAR et TAF).

Les stations disponibles sont représentées par des disques jaunes et rouges sur la carte.

Passer la souris dessus pour voir le nom de la station.

Cliquer dessus pour voir les observations et prévisions météorologiques.

Pour changer de carte: cliquez sur les boutons verts avec une croix noire pour zoomer, sur le bouton vert avec un tiret pour effectuer un zoom arrière, ou sur les flèches vertes pour les cartes adjacentes.


METAR-TAF: